sensor_id;sensor_type;location;lat;lon;timestamp;pressure;altitude;pressure_sealevel;temperature;humidity
54262;BME280;40174;52.364;6.452;2023-10-19T00:02:05;99230.03;;;8.65;100.00
54262;BME280;40174;52.364;6.452;2023-10-19T00:04:39;99231.28;;;8.61;100.00
54262;BME280;40174;52.364;6.452;2023-10-19T00:07:05;99224.53;;;8.58;100.00
54262;BME280;40174;52.364;6.452;2023-10-19T00:09:33;99228.38;;;8.64;100.00
54262;BME280;40174;52.364;6.452;2023-10-19T00:12:04;99224.69;;;8.57;100.00
54262;BME280;40174;52.364;6.452;2023-10-19T00:14:32;99227.69;;;8.62;100.00
54262;BME280;40174;52.364;6.452;2023-10-19T00:16:58;99215.50;;;8.61;100.00
54262;BME280;40174;52.364;6.452;2023-10-19T00:19:32;99212.56;;;8.64;100.00
54262;BME280;40174;52.364;6.452;2023-10-19T00:22:07;99218.06;;;8.70;100.00
54262;BME280;40174;52.364;6.452;2023-10-19T00:24:46;99203.75;;;8.55;100.00
54262;BME280;40174;52.364;6.452;2023-10-19T00:27:12;99197.97;;;8.51;100.00
54262;BME280;40174;52.364;6.452;2023-10-19T00:29:43;99188.78;;;8.56;100.00
54262;BME280;40174;52.364;6.452;2023-10-19T00:32:15;99193.91;;;8.57;100.00
54262;BME280;40174;52.364;6.452;2023-10-19T00:34:44;99193.22;;;8.55;100.00
54262;BME280;40174;52.364;6.452;2023-10-19T00:37:19;99192.41;;;8.55;100.00
54262;BME280;40174;52.364;6.452;2023-10-19T00:39:52;99184.19;;;8.58;100.00
54262;BME280;40174;52.364;6.452;2023-10-19T00:42:21;99180.56;;;8.59;100.00
54262;BME280;40174;52.364;6.452;2023-10-19T00:44:51;99182.78;;;8.63;100.00
54262;BME280;40174;52.364;6.452;2023-10-19T00:47:25;99180.44;;;8.60;100.00
54262;BME280;40174;52.364;6.452;2023-10-19T00:49:56;99174.72;;;8.65;100.00
54262;BME280;40174;52.364;6.452;2023-10-19T00:52:31;99173.88;;;8.64;100.00
54262;BME280;40174;52.364;6.452;2023-10-19T00:55:08;99175.25;;;8.68;100.00
54262;BME280;40174;52.364;6.452;2023-10-19T00:57:40;99167.47;;;8.67;100.00
54262;BME280;40174;52.364;6.452;2023-10-19T01:00:13;99151.47;;;8.60;100.00
54262;BME280;40174;52.364;6.452;2023-10-19T01:02:48;99144.59;;;8.67;100.00
54262;BME280;40174;52.364;6.452;2023-10-19T01:05:17;99141.47;;;8.64;100.00
54262;BME280;40174;52.364;6.452;2023-10-19T01:07:49;99142.13;;;8.66;100.00
54262;BME280;40174;52.364;6.452;2023-10-19T01:10:22;99135.41;;;8.71;100.00
54262;BME280;40174;52.364;6.452;2023-10-19T01:12:50;99132.13;;;8.69;100.00
54262;BME280;40174;52.364;6.452;2023-10-19T01:15:19;99129.34;;;8.71;100.00
54262;BME280;40174;52.364;6.452;2023-10-19T01:17:51;99126.69;;;8.71;100.00
54262;BME280;40174;52.364;6.452;2023-10-19T01:20:20;99122.44;;;8.70;100.00
54262;BME280;40174;52.364;6.452;2023-10-19T01:22:51;99119.84;;;8.78;100.00
54262;BME280;40174;52.364;6.452;2023-10-19T01:25:32;99127.38;;;8.73;100.00
54262;BME280;40174;52.364;6.452;2023-10-19T01:28:06;99130.00;;;8.73;100.00
54262;BME280;40174;52.364;6.452;2023-10-19T01:30:34;99122.78;;;8.75;100.00
54262;BME280;40174;52.364;6.452;2023-10-19T01:33:02;99118.03;;;8.79;100.00
54262;BME280;40174;52.364;6.452;2023-10-19T01:35:29;99118.34;;;8.76;100.00
54262;BME280;40174;52.364;6.452;2023-10-19T01:38:19;99124.97;;;8.80;100.00
54262;BME280;40174;52.364;6.452;2023-10-19T01:40:45;99126.59;;;8.81;100.00
54262;BME280;40174;52.364;6.452;2023-10-19T01:43:14;99116.06;;;8.81;100.00
54262;BME280;40174;52.364;6.452;2023-10-19T01:45:47;99109.00;;;8.81;100.00
54262;BME280;40174;52.364;6.452;2023-10-19T01:48:14;99124.63;;;8.83;100.00
54262;BME280;40174;52.364;6.452;2023-10-19T01:50:41;99110.78;;;8.81;100.00
54262;BME280;40174;52.364;6.452;2023-10-19T01:53:08;99105.53;;;8.81;100.00
54262;BME280;40174;52.364;6.452;2023-10-19T01:55:43;99104.03;;;8.78;100.00
54262;BME280;40174;52.364;6.452;2023-10-19T01:58:12;99111.13;;;8.78;100.00
54262;BME280;40174;52.364;6.452;2023-10-19T02:00:40;99102.88;;;8.81;100.00
54262;BME280;40174;52.364;6.452;2023-10-19T02:03:09;99093.03;;;8.83;100.00
54262;BME280;40174;52.364;6.452;2023-10-19T02:05:35;99087.47;;;8.86;100.00
54262;BME280;40174;52.364;6.452;2023-10-19T02:08:07;99081.06;;;8.88;100.00
54262;BME280;40174;52.364;6.452;2023-10-19T02:10:33;99077.28;;;8.91;100.00
54262;BME280;40174;52.364;6.452;2023-10-19T02:13:03;99085.53;;;8.96;100.00
54262;BME280;40174;52.364;6.452;2023-10-19T02:15:33;99064.47;;;8.96;100.00
54262;BME280;40174;52.364;6.452;2023-10-19T02:18:02;99058.56;;;9.02;100.00
54262;BME280;40174;52.364;6.452;2023-10-19T02:20:28;99070.94;;;9.02;100.00
54262;BME280;40174;52.364;6.452;2023-10-19T02:22:57;99070.09;;;9.01;100.00
54262;BME280;40174;52.364;6.452;2023-10-19T02:25:29;99062.19;;;9.01;100.00
54262;BME280;40174;52.364;6.452;2023-10-19T02:28:03;99056.97;;;9.09;100.00
54262;BME280;40174;52.364;6.452;2023-10-19T02:30:29;99056.81;;;9.11;100.00
54262;BME280;40174;52.364;6.452;2023-10-19T02:32:57;99046.94;;;9.13;100.00
54262;BME280;40174;52.364;6.452;2023-10-19T02:35:23;99041.34;;;9.16;100.00
54262;BME280;40174;52.364;6.452;2023-10-19T02:37:50;99048.94;;;9.19;100.00
54262;BME280;40174;52.364;6.452;2023-10-19T02:40:16;99040.38;;;9.17;100.00
54262;BME280;40174;52.364;6.452;2023-10-19T02:42:46;99039.91;;;9.22;100.00
54262;BME280;40174;52.364;6.452;2023-10-19T02:45:15;99039.06;;;9.21;100.00
54262;BME280;40174;52.364;6.452;2023-10-19T02:47:43;99042.53;;;9.22;100.00
54262;BME280;40174;52.364;6.452;2023-10-19T02:50:09;99036.41;;;9.21;100.00
54262;BME280;40174;52.364;6.452;2023-10-19T02:52:39;99040.25;;;9.27;100.00
54262;BME280;40174;52.364;6.452;2023-10-19T02:55:07;99036.28;;;9.23;100.00
54262;BME280;40174;52.364;6.452;2023-10-19T02:57:35;99033.16;;;9.27;100.00
54262;BME280;40174;52.364;6.452;2023-10-19T03:00:02;99027.41;;;9.24;100.00
54262;BME280;40174;52.364;6.452;2023-10-19T03:02:36;99035.78;;;9.27;100.00
54262;BME280;40174;52.364;6.452;2023-10-19T03:05:03;99036.47;;;9.29;100.00
54262;BME280;40174;52.364;6.452;2023-10-19T03:07:38;99022.81;;;9.34;100.00
54262;BME280;40174;52.364;6.452;2023-10-19T03:10:05;99030.88;;;9.32;100.00
54262;BME280;40174;52.364;6.452;2023-10-19T03:12:32;99018.81;;;9.30;100.00
54262;BME280;40174;52.364;6.452;2023-10-19T03:14:58;99024.00;;;9.40;100.00
54262;BME280;40174;52.364;6.452;2023-10-19T03:17:28;99025.63;;;9.41;100.00
54262;BME280;40174;52.364;6.452;2023-10-19T03:19:57;99021.19;;;9.41;100.00
54262;BME280;40174;52.364;6.452;2023-10-19T03:22:25;99019.38;;;9.42;100.00
54262;BME280;40174;52.364;6.452;2023-10-19T03:24:53;99020.88;;;9.44;100.00
54262;BME280;40174;52.364;6.452;2023-10-19T03:27:40;99024.47;;;9.43;100.00
54262;BME280;40174;52.364;6.452;2023-10-19T03:30:10;99021.53;;;9.46;100.00
54262;BME280;40174;52.364;6.452;2023-10-19T03:32:41;99025.00;;;9.47;100.00
54262;BME280;40174;52.364;6.452;2023-10-19T03:35:09;99024.53;;;9.51;100.00
54262;BME280;40174;52.364;6.452;2023-10-19T03:37:41;99011.47;;;9.50;100.00
54262;BME280;40174;52.364;6.452;2023-10-19T03:40:08;99016.28;;;9.54;100.00
54262;BME280;40174;52.364;6.452;2023-10-19T03:42:41;99021.91;;;9.60;100.00
54262;BME280;40174;52.364;6.452;2023-10-19T03:45:12;99014.97;;;9.58;100.00
54262;BME280;40174;52.364;6.452;2023-10-19T03:47:39;99005.91;;;9.61;100.00
54262;BME280;40174;52.364;6.452;2023-10-19T03:50:11;99013.66;;;9.63;100.00
54262;BME280;40174;52.364;6.452;2023-10-19T03:52:45;99010.88;;;9.64;100.00
54262;BME280;40174;52.364;6.452;2023-10-19T03:55:13;99010.03;;;9.64;100.00
54262;BME280;40174;52.364;6.452;2023-10-19T03:57:44;99002.97;;;9.64;100.00
54262;BME280;40174;52.364;6.452;2023-10-19T04:00:16;99013.34;;;9.66;100.00
54262;BME280;40174;52.364;6.452;2023-10-19T04:02:44;99013.84;;;9.69;100.00
54262;BME280;40174;52.364;6.452;2023-10-19T04:05:14;99015.34;;;9.72;100.00
54262;BME280;40174;52.364;6.452;2023-10-19T04:07:45;99000.50;;;9.71;100.00
54262;BME280;40174;52.364;6.452;2023-10-19T04:10:15;99004.44;;;9.75;100.00
54262;BME280;40174;52.364;6.452;2023-10-19T04:12:57;99002.31;;;9.78;100.00
54262;BME280;40174;52.364;6.452;2023-10-19T04:15:28;99003.00;;;9.81;100.00
54262;BME280;40174;52.364;6.452;2023-10-19T04:17:59;98994.06;;;9.82;100.00
54262;BME280;40174;52.364;6.452;2023-10-19T04:20:28;98996.41;;;9.85;100.00
54262;BME280;40174;52.364;6.452;2023-10-19T04:23:07;98991.78;;;9.87;100.00
54262;BME280;40174;52.364;6.452;2023-10-19T04:25:39;98991.78;;;9.87;100.00
54262;BME280;40174;52.364;6.452;2023-10-19T04:28:07;98987.19;;;9.89;100.00
54262;BME280;40174;52.364;6.452;2023-10-19T04:30:36;98996.41;;;9.93;100.00
54262;BME280;40174;52.364;6.452;2023-10-19T04:33:03;98984.03;;;9.93;100.00
54262;BME280;40174;52.364;6.452;2023-10-19T04:35:36;98988.47;;;9.93;100.00
54262;BME280;40174;52.364;6.452;2023-10-19T04:38:04;98980.56;;;9.93;100.00
54262;BME280;40174;52.364;6.452;2023-10-19T04:40:33;98979.59;;;9.94;100.00
54262;BME280;40174;52.364;6.452;2023-10-19T04:43:02;98967.22;;;9.94;100.00
54262;BME280;40174;52.364;6.452;2023-10-19T04:45:31;98966.88;;;9.97;100.00
54262;BME280;40174;52.364;6.452;2023-10-19T04:47:58;98958.78;;;9.99;100.00
54262;BME280;40174;52.364;6.452;2023-10-19T04:50:25;98967.69;;;10.06;100.00
54262;BME280;40174;52.364;6.452;2023-10-19T04:52:54;98957.81;;;10.16;100.00
54262;BME280;40174;52.364;6.452;2023-10-19T04:55:21;98963.91;;;10.17;100.00
54262;BME280;40174;52.364;6.452;2023-10-19T04:57:48;98959.28;;;10.19;100.00
54262;BME280;40174;52.364;6.452;2023-10-19T05:00:17;98961.13;;;10.18;100.00
54262;BME280;40174;52.364;6.452;2023-10-19T05:02:46;98967.53;;;10.24;100.00
54262;BME280;40174;52.364;6.452;2023-10-19T05:05:13;98967.06;;;10.29;100.00
54262;BME280;40174;52.364;6.452;2023-10-19T05:07:42;98969.84;;;10.35;100.00
54262;BME280;40174;52.364;6.452;2023-10-19T05:10:12;98966.06;;;10.38;100.00
54262;BME280;40174;52.364;6.452;2023-10-19T05:12:39;98964.06;;;10.40;100.00
54262;BME280;40174;52.364;6.452;2023-10-19T05:15:07;98957.66;;;10.34;100.00
54262;BME280;40174;52.364;6.452;2023-10-19T05:17:34;98960.94;;;10.45;100.00
54262;BME280;40174;52.364;6.452;2023-10-19T05:20:02;98969.69;;;10.45;100.00
54262;BME280;40174;52.364;6.452;2023-10-19T05:22:31;98970.88;;;10.43;100.00
54262;BME280;40174;52.364;6.452;2023-10-19T05:24:58;98968.84;;;10.45;100.00
54262;BME280;40174;52.364;6.452;2023-10-19T05:27:28;98971.69;;;10.43;100.00
54262;BME280;40174;52.364;6.452;2023-10-19T05:29:55;98971.34;;;10.46;100.00
54262;BME280;40174;52.364;6.452;2023-10-19T05:32:24;98969.03;;;10.43;100.00
54262;BME280;40174;52.364;6.452;2023-10-19T05:34:51;98964.41;;;10.45;100.00
54262;BME280;40174;52.364;6.452;2023-10-19T05:37:18;98969.19;;;10.50;100.00
54262;BME280;40174;52.364;6.452;2023-10-19T05:39:47;98980.75;;;10.49;100.00
54262;BME280;40174;52.364;6.452;2023-10-19T05:42:17;98977.28;;;10.56;100.00
54262;BME280;40174;52.364;6.452;2023-10-19T05:44:45;98981.91;;;10.54;100.00
54262;BME280;40174;52.364;6.452;2023-10-19T05:47:12;98976.56;;;10.63;100.00
54262;BME280;40174;52.364;6.452;2023-10-19T05:49:39;98991.97;;;10.59;100.00
54262;BME280;40174;52.364;6.452;2023-10-19T05:52:06;98997.91;;;10.61;100.00
54262;BME280;40174;52.364;6.452;2023-10-19T05:54:34;98997.22;;;10.67;100.00
54262;BME280;40174;52.364;6.452;2023-10-19T05:57:03;98995.41;;;10.68;100.00
54262;BME280;40174;52.364;6.452;2023-10-19T05:59:34;98999.69;;;10.77;100.00
54262;BME280;40174;52.364;6.452;2023-10-19T06:02:03;99003.81;;;10.79;100.00
54262;BME280;40174;52.364;6.452;2023-10-19T06:04:33;99006.28;;;10.81;100.00
54262;BME280;40174;52.364;6.452;2023-10-19T06:07:00;99001.97;;;10.80;100.00
54262;BME280;40174;52.364;6.452;2023-10-19T06:09:28;99001.66;;;10.83;100.00
54262;BME280;40174;52.364;6.452;2023-10-19T06:11:56;99015.34;;;10.87;100.00
54262;BME280;40174;52.364;6.452;2023-10-19T06:14:23;99004.78;;;10.87;100.00
54262;BME280;40174;52.364;6.452;2023-10-19T06:16:50;99010.56;;;10.90;100.00
54262;BME280;40174;52.364;6.452;2023-10-19T06:19:19;99019.47;;;10.89;100.00
54262;BME280;40174;52.364;6.452;2023-10-19T06:21:46;99020.63;;;10.87;100.00
54262;BME280;40174;52.364;6.452;2023-10-19T06:24:13;99014.38;;;10.88;100.00
54262;BME280;40174;52.364;6.452;2023-10-19T06:26:41;99020.63;;;10.95;100.00
54262;BME280;40174;52.364;6.452;2023-10-19T06:29:08;99022.91;;;10.98;100.00
54262;BME280;40174;52.364;6.452;2023-10-19T06:31:36;99025.09;;;10.94;100.00
54262;BME280;40174;52.364;6.452;2023-10-19T06:34:04;99028.25;;;10.90;100.00
54262;BME280;40174;52.364;6.452;2023-10-19T06:36:32;99031.19;;;10.95;100.00
54262;BME280;40174;52.364;6.452;2023-10-19T06:38:59;99032.66;;;10.97;100.00
54262;BME280;40174;52.364;6.452;2023-10-19T06:41:32;99038.97;;;10.96;100.00
54262;BME280;40174;52.364;6.452;2023-10-19T06:44:00;99036.13;;;10.98;100.00
54262;BME280;40174;52.364;6.452;2023-10-19T06:46:27;99045.53;;;11.00;100.00
54262;BME280;40174;52.364;6.452;2023-10-19T06:48:56;99037.44;;;11.02;100.00
54262;BME280;40174;52.364;6.452;2023-10-19T06:51:25;99035.97;;;10.99;100.00
54262;BME280;40174;52.364;6.452;2023-10-19T06:53:56;99034.28;;;11.07;100.00
54262;BME280;40174;52.364;6.452;2023-10-19T06:56:23;99041.25;;;11.08;100.00
54262;BME280;40174;52.364;6.452;2023-10-19T06:58:52;99045.69;;;11.07;100.00
54262;BME280;40174;52.364;6.452;2023-10-19T07:01:19;99043.69;;;11.09;100.00
54262;BME280;40174;52.364;6.452;2023-10-19T07:03:51;99043.38;;;11.12;100.00
54262;BME280;40174;52.364;6.452;2023-10-19T07:06:19;99043.38;;;11.12;100.00
54262;BME280;40174;52.364;6.452;2023-10-19T07:08:46;99054.78;;;11.13;100.00
54262;BME280;40174;52.364;6.452;2023-10-19T07:11:15;99044.03;;;11.14;100.00
54262;BME280;40174;52.364;6.452;2023-10-19T07:13:43;99052.59;;;11.16;100.00
54262;BME280;40174;52.364;6.452;2023-10-19T07:16:11;99053.75;;;11.22;100.00
54262;BME280;40174;52.364;6.452;2023-10-19T07:18:39;99059.84;;;11.22;100.00
54262;BME280;40174;52.364;6.452;2023-10-19T07:21:06;99066.63;;;11.25;100.00
54262;BME280;40174;52.364;6.452;2023-10-19T07:23:34;99063.97;;;11.25;100.00
54262;BME280;40174;52.364;6.452;2023-10-19T07:26:03;99059.69;;;11.24;100.00
54262;BME280;40174;52.364;6.452;2023-10-19T07:28:33;99060.16;;;11.28;100.00
54262;BME280;40174;52.364;6.452;2023-10-19T07:31:00;99069.59;;;11.30;100.00
54262;BME280;40174;52.364;6.452;2023-10-19T07:33:29;99058.00;;;11.31;100.00
54262;BME280;40174;52.364;6.452;2023-10-19T07:35:56;99062.63;;;11.37;100.00
54262;BME280;40174;52.364;6.452;2023-10-19T07:38:25;99064.91;;;11.40;100.00
54262;BME280;40174;52.364;6.452;2023-10-19T07:40:54;99063.09;;;11.41;100.00
54262;BME280;40174;52.364;6.452;2023-10-19T07:43:21;99065.22;;;11.45;100.00
54262;BME280;40174;52.364;6.452;2023-10-19T07:45:50;99074.66;;;11.48;100.00
54262;BME280;40174;52.364;6.452;2023-10-19T07:48:17;99076.28;;;11.49;100.00
54262;BME280;40174;52.364;6.452;2023-10-19T07:50:44;99077.75;;;11.52;100.00
54262;BME280;40174;52.364;6.452;2023-10-19T07:53:12;99075.78;;;11.54;100.00
54262;BME280;40174;52.364;6.452;2023-10-19T07:55:39;99063.84;;;11.58;100.00
54262;BME280;40174;52.364;6.452;2023-10-19T07:58:08;99064.34;;;11.61;100.00
54262;BME280;40174;52.364;6.452;2023-10-19T08:00:36;99061.69;;;11.61;100.00
54262;BME280;40174;52.364;6.452;2023-10-19T08:03:06;99073.75;;;11.64;100.00
54262;BME280;40174;52.364;6.452;2023-10-19T08:05:36;99076.69;;;11.69;100.00
54262;BME280;40174;52.364;6.452;2023-10-19T08:08:04;99070.59;;;11.69;100.00
54262;BME280;40174;52.364;6.452;2023-10-19T08:10:31;99070.41;;;11.70;100.00
54262;BME280;40174;52.364;6.452;2023-10-19T08:13:00;99076.19;;;11.74;100.00
54262;BME280;40174;52.364;6.452;2023-10-19T08:15:27;99072.34;;;11.76;100.00
54262;BME280;40174;52.364;6.452;2023-10-19T08:17:55;99076.47;;;11.79;100.00
54262;BME280;40174;52.364;6.452;2023-10-19T08:20:24;99074.16;;;11.84;100.00
54262;BME280;40174;52.364;6.452;2023-10-19T08:22:56;99072.97;;;11.86;100.00
54262;BME280;40174;52.364;6.452;2023-10-19T08:25:24;99066.19;;;11.92;100.00
54262;BME280;40174;52.364;6.452;2023-10-19T08:27:53;99075.59;;;11.95;100.00
54262;BME280;40174;52.364;6.452;2023-10-19T08:30:22;99082.19;;;11.99;100.00
54262;BME280;40174;52.364;6.452;2023-10-19T08:32:51;99079.88;;;12.04;100.00
54262;BME280;40174;52.364;6.452;2023-10-19T08:35:20;99081.97;;;12.09;100.00
54262;BME280;40174;52.364;6.452;2023-10-19T08:37:51;99073.69;;;12.12;100.00
54262;BME280;40174;52.364;6.452;2023-10-19T08:40:19;99078.63;;;12.15;100.00
54262;BME280;40174;52.364;6.452;2023-10-19T08:42:47;99076.44;;;12.18;100.00
54262;BME280;40174;52.364;6.452;2023-10-19T08:45:16;99077.91;;;12.21;100.00
54262;BME280;40174;52.364;6.452;2023-10-19T08:47:48;99072.09;;;12.25;100.00
54262;BME280;40174;52.364;6.452;2023-10-19T08:50:16;99086.81;;;12.28;100.00
54262;BME280;40174;52.364;6.452;2023-10-19T08:52:46;99074.22;;;12.30;100.00
54262;BME280;40174;52.364;6.452;2023-10-19T08:55:16;99080.31;;;12.31;100.00
54262;BME280;40174;52.364;6.452;2023-10-19T08:57:44;99078.97;;;12.35;100.00
54262;BME280;40174;52.364;6.452;2023-10-19T09:00:14;99087.41;;;12.38;100.00
54262;BME280;40174;52.364;6.452;2023-10-19T09:02:43;99088.06;;;12.40;100.00
54262;BME280;40174;52.364;6.452;2023-10-19T09:05:11;99088.69;;;12.42;100.00
54262;BME280;40174;52.364;6.452;2023-10-19T09:07:45;99082.66;;;12.48;100.00
54262;BME280;40174;52.364;6.452;2023-10-19T09:10:21;99079.47;;;12.53;100.00
54262;BME280;40174;52.364;6.452;2023-10-19T09:13:01;99082.25;;;12.60;100.00
54262;BME280;40174;52.364;6.452;2023-10-19T09:15:30;99080.06;;;12.63;100.00
54262;BME280;40174;52.364;6.452;2023-10-19T09:17:58;99074.41;;;12.66;100.00
54262;BME280;40174;52.364;6.452;2023-10-19T09:20:25;99067.56;;;12.72;100.00
54262;BME280;40174;52.364;6.452;2023-10-19T09:22:54;99064.56;;;12.75;100.00
54262;BME280;40174;52.364;6.452;2023-10-19T09:25:25;99060.72;;;12.78;100.00
54262;BME280;40174;52.364;6.452;2023-10-19T09:27:52;99062.81;;;12.82;100.00
54262;BME280;40174;52.364;6.452;2023-10-19T09:30:19;99059.19;;;12.83;100.00
54262;BME280;40174;52.364;6.452;2023-10-19T09:32:46;99064.31;;;12.85;100.00
54262;BME280;40174;52.364;6.452;2023-10-19T09:35:15;99067.41;;;12.88;100.00
54262;BME280;40174;52.364;6.452;2023-10-19T09:37:42;99052.97;;;12.91;100.00
54262;BME280;40174;52.364;6.452;2023-10-19T09:40:10;99047.13;;;12.96;100.00
54262;BME280;40174;52.364;6.452;2023-10-19T09:42:40;99053.38;;;13.03;100.00
54262;BME280;40174;52.364;6.452;2023-10-19T09:45:12;99056.28;;;13.08;100.00
54262;BME280;40174;52.364;6.452;2023-10-19T09:47:49;99055.09;;;13.10;100.00
54262;BME280;40174;52.364;6.452;2023-10-19T09:50:16;99059.03;;;13.15;100.00
54262;BME280;40174;52.364;6.452;2023-10-19T09:52:43;99053.56;;;13.16;100.00
54262;BME280;40174;52.364;6.452;2023-10-19T09:55:16;99056.28;;;13.23;100.00
54262;BME280;40174;52.364;6.452;2023-10-19T09:57:49;99051.72;;;13.31;100.00
54262;BME280;40174;52.364;6.452;2023-10-19T10:00:18;99044.50;;;13.40;100.00
54262;BME280;40174;52.364;6.452;2023-10-19T10:02:49;99050.53;;;13.49;100.00
54262;BME280;40174;52.364;6.452;2023-10-19T10:05:46;99044.94;;;13.59;100.00
54262;BME280;40174;52.364;6.452;2023-10-19T10:08:32;99053.34;;;13.62;100.00
54262;BME280;40174;52.364;6.452;2023-10-19T10:11:21;99053.59;;;13.67;100.00
54262;BME280;40174;52.364;6.452;2023-10-19T10:13:50;99049.78;;;13.70;100.00
54262;BME280;40174;52.364;6.452;2023-10-19T10:16:18;99053.66;;;13.74;100.00
54262;BME280;40174;52.364;6.452;2023-10-19T10:18:47;99063.16;;;13.83;100.00
54262;BME280;40174;52.364;6.452;2023-10-19T10:21:17;99070.03;;;13.92;100.00
54262;BME280;40174;52.364;6.452;2023-10-19T10:23:49;99064.41;;;14.02;100.00
54262;BME280;40174;52.364;6.452;2023-10-19T10:26:19;99059.16;;;14.09;100.00
54262;BME280;40174;52.364;6.452;2023-10-19T10:29:12;99058.22;;;14.17;100.00
54262;BME280;40174;52.364;6.452;2023-10-19T10:31:43;99051.91;;;14.18;100.00
54262;BME280;40174;52.364;6.452;2023-10-19T10:34:12;99053.81;;;14.24;100.00
54262;BME280;40174;52.364;6.452;2023-10-19T10:37:00;99051.00;;;14.32;100.00
54262;BME280;40174;52.364;6.452;2023-10-19T10:39:28;99057.66;;;14.43;100.00
54262;BME280;40174;52.364;6.452;2023-10-19T10:41:56;99056.69;;;14.50;100.00
54262;BME280;40174;52.364;6.452;2023-10-19T10:44:39;99057.84;;;14.63;100.00
54262;BME280;40174;52.364;6.452;2023-10-19T10:47:07;99049.94;;;14.69;100.00
54262;BME280;40174;52.364;6.452;2023-10-19T10:49:45;99055.47;;;14.74;100.00
54262;BME280;40174;52.364;6.452;2023-10-19T10:52:13;99057.41;;;14.87;100.00
54262;BME280;40174;52.364;6.452;2023-10-19T10:54:41;99048.50;;;15.02;100.00
54262;BME280;40174;52.364;6.452;2023-10-19T10:57:08;99053.34;;;15.26;100.00
54262;BME280;40174;52.364;6.452;2023-10-19T10:59:35;99058.16;;;15.44;100.00
54262;BME280;40174;52.364;6.452;2023-10-19T11:02:16;99059.75;;;15.73;100.00
54262;BME280;40174;52.364;6.452;2023-10-19T11:04:43;99058.16;;;15.92;100.00
54262;BME280;40174;52.364;6.452;2023-10-19T11:07:17;99068.47;;;16.15;100.00
54262;BME280;40174;52.364;6.452;2023-10-19T11:09:45;99055.34;;;16.27;100.00
54262;BME280;40174;52.364;6.452;2023-10-19T11:12:15;99055.78;;;16.44;100.00
54262;BME280;40174;52.364;6.452;2023-10-19T11:14:52;99048.00;;;16.62;100.00
54262;BME280;40174;52.364;6.452;2023-10-19T11:17:22;99044.72;;;16.87;100.00
54262;BME280;40174;52.364;6.452;2023-10-19T11:19:54;99049.84;;;17.09;100.00
54262;BME280;40174;52.364;6.452;2023-10-19T11:22:23;99048.56;;;17.24;100.00
54262;BME280;40174;52.364;6.452;2023-10-19T11:24:52;99043.34;;;17.50;100.00
54262;BME280;40174;52.364;6.452;2023-10-19T11:27:24;99040.75;;;17.81;100.00
54262;BME280;40174;52.364;6.452;2023-10-19T11:29:53;99031.91;;;17.88;100.00
54262;BME280;40174;52.364;6.452;2023-10-19T11:32:23;99031.53;;;17.71;100.00
54262;BME280;40174;52.364;6.452;2023-10-19T11:34:54;99030.00;;;17.50;100.00
54262;BME280;40174;52.364;6.452;2023-10-19T11:37:22;99019.56;;;17.28;100.00
54262;BME280;40174;52.364;6.452;2023-10-19T11:39:49;99016.50;;;17.31;100.00
54262;BME280;40174;52.364;6.452;2023-10-19T11:42:17;99009.69;;;17.35;100.00
54262;BME280;40174;52.364;6.452;2023-10-19T11:44:45;99003.72;;;17.47;100.00
54262;BME280;40174;52.364;6.452;2023-10-19T11:47:12;99014.44;;;17.78;100.00
54262;BME280;40174;52.364;6.452;2023-10-19T11:49:41;99015.13;;;18.05;100.00
54262;BME280;40174;52.364;6.452;2023-10-19T11:52:08;99009.47;;;18.20;100.00
54262;BME280;40174;52.364;6.452;2023-10-19T11:54:36;99017.72;;;18.44;100.00
54262;BME280;40174;52.364;6.452;2023-10-19T11:57:04;99012.81;;;18.41;100.00
54262;BME280;40174;52.364;6.452;2023-10-19T11:59:32;99007.28;;;18.11;100.00
54262;BME280;40174;52.364;6.452;2023-10-19T12:01:59;99009.03;;;18.23;100.00
54262;BME280;40174;52.364;6.452;2023-10-19T12:04:29;99001.97;;;18.04;100.00
54262;BME280;40174;52.364;6.452;2023-10-19T12:07:03;98993.09;;;17.72;100.00
54262;BME280;40174;52.364;6.452;2023-10-19T12:09:31;98997.09;;;17.56;100.00
54262;BME280;40174;52.364;6.452;2023-10-19T12:11:58;98989.97;;;17.43;100.00
54262;BME280;40174;52.364;6.452;2023-10-19T12:14:25;98979.31;;;17.36;100.00
54262;BME280;40174;52.364;6.452;2023-10-19T12:16:52;98988.16;;;17.30;100.00
54262;BME280;40174;52.364;6.452;2023-10-19T12:19:20;98990.25;;;17.21;100.00
54262;BME280;40174;52.364;6.452;2023-10-19T12:21:48;98989.00;;;17.17;100.00
54262;BME280;40174;52.364;6.452;2023-10-19T12:24:17;98982.91;;;17.03;100.00
54262;BME280;40174;52.364;6.452;2023-10-19T12:26:45;98983.34;;;17.00;100.00
54262;BME280;40174;52.364;6.452;2023-10-19T12:29:13;98973.91;;;16.98;100.00
54262;BME280;40174;52.364;6.452;2023-10-19T12:31:42;98970.19;;;16.99;100.00
54262;BME280;40174;52.364;6.452;2023-10-19T12:34:09;98965.06;;;17.04;100.00
54262;BME280;40174;52.364;6.452;2023-10-19T12:36:37;98966.28;;;17.01;100.00
54262;BME280;40174;52.364;6.452;2023-10-19T12:39:05;98979.84;;;17.07;100.00
54262;BME280;40174;52.364;6.452;2023-10-19T12:41:34;98973.06;;;17.11;100.00
54262;BME280;40174;52.364;6.452;2023-10-19T12:44:01;98970.16;;;17.12;100.00
54262;BME280;40174;52.364;6.452;2023-10-19T12:46:33;98966.66;;;17.18;100.00
54262;BME280;40174;52.364;6.452;2023-10-19T12:49:03;98967.88;;;17.22;100.00
54262;BME280;40174;52.364;6.452;2023-10-19T12:51:33;98963.34;;;17.23;100.00
54262;BME280;40174;52.364;6.452;2023-10-19T12:54:01;98965.00;;;17.17;100.00
54262;BME280;40174;52.364;6.452;2023-10-19T12:56:29;98957.41;;;17.14;100.00
54262;BME280;40174;52.364;6.452;2023-10-19T12:59:00;98962.75;;;17.14;100.00
54262;BME280;40174;52.364;6.452;2023-10-19T13:01:27;98961.13;;;17.13;100.00
54262;BME280;40174;52.364;6.452;2023-10-19T13:03:59;98967.47;;;17.12;100.00
54262;BME280;40174;52.364;6.452;2023-10-19T13:06:31;98964.44;;;17.09;100.00